sensor_id;sensor_type;location;lat;lon;timestamp;P1;durP1;ratioP1;P2;durP2;ratioP2
55037;SDS011;40937;53.594;10.034;2023-03-15T00:01:02;7.38;;;2.22;;
55037;SDS011;40937;53.594;10.034;2023-03-15T00:03:30;6.95;;;2.53;;
55037;SDS011;40937;53.594;10.034;2023-03-15T00:06:01;5.55;;;2.03;;
55037;SDS011;40937;53.594;10.034;2023-03-15T00:08:29;6.35;;;2.58;;
55037;SDS011;40937;53.594;10.034;2023-03-15T00:10:58;11.43;;;3.58;;
55037;SDS011;40937;53.594;10.034;2023-03-15T00:13:26;4.20;;;1.90;;
55037;SDS011;40937;53.594;10.034;2023-03-15T00:15:55;9.13;;;3.60;;
55037;SDS011;40937;53.594;10.034;2023-03-15T00:18:25;6.97;;;2.72;;
55037;SDS011;40937;53.594;10.034;2023-03-15T00:20:53;6.45;;;1.77;;
55037;SDS011;40937;53.594;10.034;2023-03-15T00:23:20;4.97;;;1.30;;
55037;SDS011;40937;53.594;10.034;2023-03-15T00:25:47;4.32;;;1.73;;
55037;SDS011;40937;53.594;10.034;2023-03-15T00:28:16;2.95;;;1.75;;
55037;SDS011;40937;53.594;10.034;2023-03-15T00:30:43;5.47;;;2.28;;
55037;SDS011;40937;53.594;10.034;2023-03-15T00:33:11;3.00;;;1.27;;
55037;SDS011;40937;53.594;10.034;2023-03-15T00:35:41;8.82;;;2.05;;
55037;SDS011;40937;53.594;10.034;2023-03-15T00:38:09;7.47;;;1.90;;
55037;SDS011;40937;53.594;10.034;2023-03-15T00:40:40;4.22;;;1.42;;
55037;SDS011;40937;53.594;10.034;2023-03-15T00:43:08;5.47;;;1.55;;
55037;SDS011;40937;53.594;10.034;2023-03-15T00:45:35;6.03;;;1.67;;
55037;SDS011;40937;53.594;10.034;2023-03-15T00:48:03;4.72;;;1.85;;
55037;SDS011;40937;53.594;10.034;2023-03-15T00:50:30;3.60;;;1.52;;
55037;SDS011;40937;53.594;10.034;2023-03-15T00:52:59;3.05;;;1.50;;
55037;SDS011;40937;53.594;10.034;2023-03-15T00:55:27;8.85;;;1.98;;
55037;SDS011;40937;53.594;10.034;2023-03-15T00:57:55;6.80;;;1.88;;
55037;SDS011;40937;53.594;10.034;2023-03-15T01:00:23;7.22;;;1.67;;
55037;SDS011;40937;53.594;10.034;2023-03-15T01:02:50;4.63;;;1.60;;
55037;SDS011;40937;53.594;10.034;2023-03-15T01:05:19;4.15;;;1.75;;
55037;SDS011;40937;53.594;10.034;2023-03-15T01:07:46;6.07;;;1.65;;
55037;SDS011;40937;53.594;10.034;2023-03-15T01:10:17;8.02;;;1.92;;
55037;SDS011;40937;53.594;10.034;2023-03-15T01:12:45;4.20;;;1.92;;
55037;SDS011;40937;53.594;10.034;2023-03-15T01:15:13;5.15;;;2.40;;
55037;SDS011;40937;53.594;10.034;2023-03-15T01:17:41;5.07;;;1.83;;
55037;SDS011;40937;53.594;10.034;2023-03-15T01:20:09;5.13;;;1.92;;
55037;SDS011;40937;53.594;10.034;2023-03-15T01:22:38;4.25;;;2.20;;
55037;SDS011;40937;53.594;10.034;2023-03-15T01:25:06;6.65;;;2.10;;
55037;SDS011;40937;53.594;10.034;2023-03-15T01:27:36;8.45;;;2.22;;
55037;SDS011;40937;53.594;10.034;2023-03-15T01:30:04;6.93;;;2.22;;
55037;SDS011;40937;53.594;10.034;2023-03-15T01:32:32;9.90;;;2.80;;
55037;SDS011;40937;53.594;10.034;2023-03-15T01:35:00;7.57;;;2.20;;
55037;SDS011;40937;53.594;10.034;2023-03-15T01:37:27;7.47;;;2.28;;
55037;SDS011;40937;53.594;10.034;2023-03-15T01:39:54;5.32;;;2.22;;
55037;SDS011;40937;53.594;10.034;2023-03-15T01:42:22;3.42;;;1.70;;
55037;SDS011;40937;53.594;10.034;2023-03-15T01:44:54;4.90;;;2.28;;
55037;SDS011;40937;53.594;10.034;2023-03-15T01:47:22;7.63;;;2.83;;
55037;SDS011;40937;53.594;10.034;2023-03-15T01:49:54;6.25;;;2.20;;
55037;SDS011;40937;53.594;10.034;2023-03-15T01:52:28;6.32;;;2.72;;
55037;SDS011;40937;53.594;10.034;2023-03-15T01:55:03;9.85;;;3.13;;
55037;SDS011;40937;53.594;10.034;2023-03-15T01:57:34;7.30;;;2.83;;
55037;SDS011;40937;53.594;10.034;2023-03-15T02:00:09;6.35;;;2.80;;
55037;SDS011;40937;53.594;10.034;2023-03-15T02:02:55;3.85;;;2.30;;
55037;SDS011;40937;53.594;10.034;2023-03-15T02:05:29;4.05;;;2.30;;
55037;SDS011;40937;53.594;10.034;2023-03-15T02:08:01;4.43;;;2.60;;
55037;SDS011;40937;53.594;10.034;2023-03-15T02:10:34;7.85;;;3.30;;
55037;SDS011;40937;53.594;10.034;2023-03-15T02:13:04;4.75;;;2.70;;
55037;SDS011;40937;53.594;10.034;2023-03-15T02:15:34;4.35;;;2.50;;
55037;SDS011;40937;53.594;10.034;2023-03-15T02:18:04;6.43;;;2.58;;
55037;SDS011;40937;53.594;10.034;2023-03-15T02:20:32;5.47;;;2.22;;
55037;SDS011;40937;53.594;10.034;2023-03-15T02:23:04;3.23;;;1.90;;
55037;SDS011;40937;53.594;10.034;2023-03-15T02:25:37;2.63;;;2.08;;
55037;SDS011;40937;53.594;10.034;2023-03-15T02:28:13;5.00;;;2.10;;
55037;SDS011;40937;53.594;10.034;2023-03-15T02:30:42;5.15;;;2.30;;
55037;SDS011;40937;53.594;10.034;2023-03-15T02:33:12;4.97;;;2.15;;
55037;SDS011;40937;53.594;10.034;2023-03-15T02:35:44;4.10;;;2.35;;
55037;SDS011;40937;53.594;10.034;2023-03-15T02:38:11;4.70;;;1.90;;
55037;SDS011;40937;53.594;10.034;2023-03-15T02:40:39;2.60;;;1.95;;
55037;SDS011;40937;53.594;10.034;2023-03-15T02:43:08;3.17;;;1.98;;
55037;SDS011;40937;53.594;10.034;2023-03-15T02:45:40;2.20;;;2.00;;
55037;SDS011;40937;53.594;10.034;2023-03-15T02:48:08;3.10;;;2.10;;
55037;SDS011;40937;53.594;10.034;2023-03-15T02:50:36;3.20;;;2.10;;
55037;SDS011;40937;53.594;10.034;2023-03-15T02:53:04;6.55;;;2.08;;
55037;SDS011;40937;53.594;10.034;2023-03-15T02:55:31;5.30;;;2.17;;
55037;SDS011;40937;53.594;10.034;2023-03-15T02:57:59;2.65;;;2.25;;
55037;SDS011;40937;53.594;10.034;2023-03-15T03:00:27;2.70;;;2.40;;
55037;SDS011;40937;53.594;10.034;2023-03-15T03:02:58;4.93;;;2.85;;
55037;SDS011;40937;53.594;10.034;2023-03-15T03:05:26;4.22;;;2.20;;
55037;SDS011;40937;53.594;10.034;2023-03-15T03:07:53;4.35;;;2.70;;
55037;SDS011;40937;53.594;10.034;2023-03-15T03:10:20;4.50;;;2.65;;
55037;SDS011;40937;53.594;10.034;2023-03-15T03:12:51;3.25;;;2.33;;
55037;SDS011;40937;53.594;10.034;2023-03-15T03:15:24;3.05;;;2.15;;
55037;SDS011;40937;53.594;10.034;2023-03-15T03:17:51;3.38;;;2.38;;
55037;SDS011;40937;53.594;10.034;2023-03-15T03:20:23;3.25;;;2.75;;
55037;SDS011;40937;53.594;10.034;2023-03-15T03:22:50;4.45;;;2.70;;
55037;SDS011;40937;53.594;10.034;2023-03-15T03:25:20;3.53;;;2.95;;
55037;SDS011;40937;53.594;10.034;2023-03-15T03:27:52;2.90;;;2.70;;
55037;SDS011;40937;53.594;10.034;2023-03-15T03:30:22;7.10;;;2.90;;
55037;SDS011;40937;53.594;10.034;2023-03-15T03:32:51;5.40;;;2.75;;
55037;SDS011;40937;53.594;10.034;2023-03-15T03:35:19;6.75;;;3.17;;
55037;SDS011;40937;53.594;10.034;2023-03-15T03:37:48;4.32;;;3.00;;
55037;SDS011;40937;53.594;10.034;2023-03-15T03:40:21;3.80;;;2.85;;
55037;SDS011;40937;53.594;10.034;2023-03-15T03:42:48;3.63;;;2.65;;
55037;SDS011;40937;53.594;10.034;2023-03-15T03:45:18;7.53;;;3.28;;
55037;SDS011;40937;53.594;10.034;2023-03-15T03:47:48;5.78;;;3.20;;
55037;SDS011;40937;53.594;10.034;2023-03-15T03:50:16;5.28;;;2.70;;
55037;SDS011;40937;53.594;10.034;2023-03-15T03:52:43;5.88;;;3.25;;
55037;SDS011;40937;53.594;10.034;2023-03-15T03:55:19;3.63;;;3.22;;
55037;SDS011;40937;53.594;10.034;2023-03-15T03:57:50;3.58;;;3.08;;
55037;SDS011;40937;53.594;10.034;2023-03-15T04:00:33;3.30;;;3.03;;
55037;SDS011;40937;53.594;10.034;2023-03-15T04:03:00;5.07;;;2.72;;
55037;SDS011;40937;53.594;10.034;2023-03-15T04:05:31;4.32;;;2.85;;
55037;SDS011;40937;53.594;10.034;2023-03-15T04:07:58;2.50;;;2.05;;
55037;SDS011;40937;53.594;10.034;2023-03-15T04:10:30;3.35;;;2.08;;
55037;SDS011;40937;53.594;10.034;2023-03-15T04:13:00;1.90;;;1.77;;
55037;SDS011;40937;53.594;10.034;2023-03-15T04:15:27;2.13;;;1.92;;
55037;SDS011;40937;53.594;10.034;2023-03-15T04:17:56;1.80;;;1.70;;
55037;SDS011;40937;53.594;10.034;2023-03-15T04:22:59;2.20;;;2.00;;
55037;SDS011;40937;53.594;10.034;2023-03-15T04:25:39;1.40;;;1.35;;
55037;SDS011;40937;53.594;10.034;2023-03-15T04:28:27;1.50;;;1.40;;
55037;SDS011;40937;53.594;10.034;2023-03-15T04:31:16;3.28;;;1.75;;
55037;SDS011;40937;53.594;10.034;2023-03-15T04:34:03;1.83;;;1.70;;
55037;SDS011;40937;53.594;10.034;2023-03-15T04:36:57;1.42;;;1.33;;
55037;SDS011;40937;53.594;10.034;2023-03-15T04:39:34;2.30;;;1.75;;
55037;SDS011;40937;53.594;10.034;2023-03-15T04:42:20;1.60;;;1.35;;
55037;SDS011;40937;53.594;10.034;2023-03-15T04:45:02;1.63;;;1.52;;
55037;SDS011;40937;53.594;10.034;2023-03-15T04:47:48;5.05;;;2.33;;
55037;SDS011;40937;53.594;10.034;2023-03-15T04:50:38;1.80;;;1.70;;
55037;SDS011;40937;53.594;10.034;2023-03-15T04:53:05;2.20;;;1.98;;
55037;SDS011;40937;53.594;10.034;2023-03-15T04:55:35;2.30;;;2.08;;
55037;SDS011;40937;53.594;10.034;2023-03-15T04:58:20;2.92;;;2.72;;
55037;SDS011;40937;53.594;10.034;2023-03-15T05:01:14;3.50;;;3.20;;
55037;SDS011;40937;53.594;10.034;2023-03-15T05:03:49;3.70;;;3.40;;
55037;SDS011;40937;53.594;10.034;2023-03-15T05:06:47;5.05;;;4.32;;
55037;SDS011;40937;53.594;10.034;2023-03-15T05:09:47;5.30;;;4.90;;
55037;SDS011;40937;53.594;10.034;2023-03-15T05:12:37;6.55;;;5.90;;
55037;SDS011;40937;53.594;10.034;2023-03-15T05:15:41;6.38;;;5.68;;
55037;SDS011;40937;53.594;10.034;2023-03-15T05:18:27;8.23;;;6.72;;
55037;SDS011;40937;53.594;10.034;2023-03-15T05:21:14;7.88;;;7.15;;
55037;SDS011;40937;53.594;10.034;2023-03-15T05:23:51;9.10;;;7.97;;
55037;SDS011;40937;53.594;10.034;2023-03-15T05:26:32;8.93;;;8.13;;
55037;SDS011;40937;53.594;10.034;2023-03-15T05:29:31;9.63;;;8.73;;
55037;SDS011;40937;53.594;10.034;2023-03-15T05:32:29;11.68;;;9.00;;
55037;SDS011;40937;53.594;10.034;2023-03-15T05:34:59;9.95;;;9.00;;
55037;SDS011;40937;53.594;10.034;2023-03-15T05:37:39;10.07;;;9.07;;
55037;SDS011;40937;53.594;10.034;2023-03-15T05:40:33;13.40;;;9.43;;
55037;SDS011;40937;53.594;10.034;2023-03-15T05:43:16;10.50;;;8.55;;
55037;SDS011;40937;53.594;10.034;2023-03-15T05:45:51;9.38;;;8.57;;
55037;SDS011;40937;53.594;10.034;2023-03-15T05:48:40;8.73;;;7.85;;
55037;SDS011;40937;53.594;10.034;2023-03-15T05:51:26;9.75;;;8.60;;
55037;SDS011;40937;53.594;10.034;2023-03-15T05:54:07;13.55;;;9.07;;
55037;SDS011;40937;53.594;10.034;2023-03-15T05:56:34;12.27;;;8.23;;
55037;SDS011;40937;53.594;10.034;2023-03-15T05:59:27;8.73;;;7.90;;
55037;SDS011;40937;53.594;10.034;2023-03-15T06:02:27;8.48;;;7.03;;
55037;SDS011;40937;53.594;10.034;2023-03-15T06:07:39;11.32;;;7.32;;
55037;SDS011;40937;53.594;10.034;2023-03-15T06:10:06;11.70;;;7.82;;
55037;SDS011;40937;53.594;10.034;2023-03-15T06:12:36;9.75;;;6.47;;
55037;SDS011;40937;53.594;10.034;2023-03-15T06:15:03;10.55;;;7.20;;
55037;SDS011;40937;53.594;10.034;2023-03-15T06:17:33;9.55;;;7.22;;
55037;SDS011;40937;53.594;10.034;2023-03-15T06:20:00;11.13;;;6.85;;
55037;SDS011;40937;53.594;10.034;2023-03-15T06:22:30;8.85;;;6.55;;
55037;SDS011;40937;53.594;10.034;2023-03-15T06:25:03;8.07;;;7.28;;
55037;SDS011;40937;53.594;10.034;2023-03-15T06:27:31;8.23;;;6.63;;
55037;SDS011;40937;53.594;10.034;2023-03-15T06:29:58;8.85;;;6.53;;
55037;SDS011;40937;53.594;10.034;2023-03-15T06:32:26;9.20;;;6.88;;
55037;SDS011;40937;53.594;10.034;2023-03-15T06:34:53;27.65;;;21.23;;
55037;SDS011;40937;53.594;10.034;2023-03-15T06:37:21;13.55;;;10.73;;
55037;SDS011;40937;53.594;10.034;2023-03-15T06:39:50;10.45;;;9.30;;
55037;SDS011;40937;53.594;10.034;2023-03-15T06:42:18;12.32;;;8.07;;
55037;SDS011;40937;53.594;10.034;2023-03-15T06:44:46;9.30;;;7.05;;
55037;SDS011;40937;53.594;10.034;2023-03-15T06:47:13;14.52;;;7.13;;
55037;SDS011;40937;53.594;10.034;2023-03-15T06:49:41;12.43;;;7.20;;
55037;SDS011;40937;53.594;10.034;2023-03-15T06:52:09;16.40;;;8.30;;
55037;SDS011;40937;53.594;10.034;2023-03-15T06:54:37;10.77;;;8.57;;
55037;SDS011;40937;53.594;10.034;2023-03-15T06:57:06;10.15;;;7.55;;
55037;SDS011;40937;53.594;10.034;2023-03-15T06:59:33;9.70;;;7.40;;
55037;SDS011;40937;53.594;10.034;2023-03-15T07:02:01;8.02;;;7.28;;
55037;SDS011;40937;53.594;10.034;2023-03-15T07:04:28;7.72;;;6.25;;
55037;SDS011;40937;53.594;10.034;2023-03-15T07:06:55;8.57;;;6.35;;
55037;SDS011;40937;53.594;10.034;2023-03-15T07:09:23;10.00;;;6.18;;
55037;SDS011;40937;53.594;10.034;2023-03-15T07:11:50;8.38;;;5.70;;
55037;SDS011;40937;53.594;10.034;2023-03-15T07:14:18;8.07;;;6.30;;
55037;SDS011;40937;53.594;10.034;2023-03-15T07:16:46;8.77;;;5.57;;
55037;SDS011;40937;53.594;10.034;2023-03-15T07:19:14;9.30;;;4.95;;
55037;SDS011;40937;53.594;10.034;2023-03-15T07:21:41;12.32;;;8.98;;
55037;SDS011;40937;53.594;10.034;2023-03-15T07:24:08;8.63;;;5.80;;
55037;SDS011;40937;53.594;10.034;2023-03-15T07:26:35;10.50;;;5.65;;
55037;SDS011;40937;53.594;10.034;2023-03-15T07:29:02;11.05;;;4.68;;
55037;SDS011;40937;53.594;10.034;2023-03-15T07:31:31;9.00;;;5.47;;
55037;SDS011;40937;53.594;10.034;2023-03-15T07:33:58;6.80;;;4.90;;
55037;SDS011;40937;53.594;10.034;2023-03-15T07:36:25;12.25;;;4.50;;
55037;SDS011;40937;53.594;10.034;2023-03-15T07:38:52;6.63;;;4.22;;
55037;SDS011;40937;53.594;10.034;2023-03-15T07:41:20;10.05;;;4.78;;
55037;SDS011;40937;53.594;10.034;2023-03-15T07:43:56;5.57;;;4.28;;
55037;SDS011;40937;53.594;10.034;2023-03-15T07:46:23;6.40;;;4.20;;
55037;SDS011;40937;53.594;10.034;2023-03-15T07:48:52;6.82;;;4.10;;
55037;SDS011;40937;53.594;10.034;2023-03-15T07:51:19;7.47;;;3.55;;
55037;SDS011;40937;53.594;10.034;2023-03-15T07:53:46;7.28;;;2.65;;
55037;SDS011;40937;53.594;10.034;2023-03-15T07:56:13;5.68;;;3.35;;
55037;SDS011;40937;53.594;10.034;2023-03-15T07:58:41;2.95;;;2.55;;
55037;SDS011;40937;53.594;10.034;2023-03-15T08:01:09;3.88;;;3.13;;
55037;SDS011;40937;53.594;10.034;2023-03-15T08:03:36;6.45;;;3.08;;
55037;SDS011;40937;53.594;10.034;2023-03-15T08:06:04;5.57;;;3.22;;
55037;SDS011;40937;53.594;10.034;2023-03-15T08:08:32;6.65;;;3.17;;
55037;SDS011;40937;53.594;10.034;2023-03-15T08:10:59;4.70;;;2.97;;
55037;SDS011;40937;53.594;10.034;2023-03-15T08:13:26;3.85;;;3.20;;
55037;SDS011;40937;53.594;10.034;2023-03-15T08:15:53;4.03;;;3.03;;
55037;SDS011;40937;53.594;10.034;2023-03-15T08:18:20;5.53;;;3.60;;
55037;SDS011;40937;53.594;10.034;2023-03-15T08:20:48;5.25;;;3.53;;
55037;SDS011;40937;53.594;10.034;2023-03-15T08:23:16;4.13;;;3.10;;
55037;SDS011;40937;53.594;10.034;2023-03-15T08:25:44;3.47;;;2.88;;
55037;SDS011;40937;53.594;10.034;2023-03-15T08:28:11;5.70;;;2.85;;
55037;SDS011;40937;53.594;10.034;2023-03-15T08:30:38;7.25;;;2.85;;
55037;SDS011;40937;53.594;10.034;2023-03-15T08:33:06;4.00;;;2.85;;
55037;SDS011;40937;53.594;10.034;2023-03-15T08:35:34;6.07;;;2.58;;
55037;SDS011;40937;53.594;10.034;2023-03-15T08:38:01;4.00;;;2.75;;
55037;SDS011;40937;53.594;10.034;2023-03-15T08:40:30;2.97;;;2.70;;
55037;SDS011;40937;53.594;10.034;2023-03-15T08:42:58;4.45;;;2.65;;
55037;SDS011;40937;53.594;10.034;2023-03-15T08:45:25;3.33;;;1.90;;
55037;SDS011;40937;53.594;10.034;2023-03-15T08:47:53;5.32;;;2.17;;
55037;SDS011;40937;53.594;10.034;2023-03-15T08:50:21;5.15;;;2.00;;
55037;SDS011;40937;53.594;10.034;2023-03-15T08:52:48;2.05;;;1.75;;
55037;SDS011;40937;53.594;10.034;2023-03-15T08:55:15;5.97;;;2.00;;
55037;SDS011;40937;53.594;10.034;2023-03-15T08:57:44;6.88;;;3.28;;
55037;SDS011;40937;53.594;10.034;2023-03-15T09:12:56;4.72;;;2.00;;
55037;SDS011;40937;53.594;10.034;2023-03-15T09:30:42;5.28;;;1.38;;
55037;SDS011;40937;53.594;10.034;2023-03-15T09:33:09;3.97;;;1.75;;
55037;SDS011;40937;53.594;10.034;2023-03-15T09:35:39;4.15;;;1.45;;
55037;SDS011;40937;53.594;10.034;2023-03-15T09:38:07;4.30;;;1.15;;
55037;SDS011;40937;53.594;10.034;2023-03-15T09:40:37;2.83;;;1.63;;
55037;SDS011;40937;53.594;10.034;2023-03-15T09:43:17;4.47;;;1.13;;
55037;SDS011;40937;53.594;10.034;2023-03-15T09:46:02;2.38;;;1.13;;
55037;SDS011;40937;53.594;10.034;2023-03-15T09:48:41;3.13;;;1.15;;
55037;SDS011;40937;53.594;10.034;2023-03-15T09:51:16;4.35;;;1.77;;
55037;SDS011;40937;53.594;10.034;2023-03-15T09:53:55;5.20;;;1.67;;
55037;SDS011;40937;53.594;10.034;2023-03-15T09:56:26;5.70;;;1.67;;
55037;SDS011;40937;53.594;10.034;2023-03-15T09:59:00;7.40;;;1.50;;
55037;SDS011;40937;53.594;10.034;2023-03-15T10:01:28;6.18;;;1.40;;
55037;SDS011;40937;53.594;10.034;2023-03-15T10:03:57;5.40;;;2.00;;
55037;SDS011;40937;53.594;10.034;2023-03-15T10:06:31;7.28;;;2.00;;
55037;SDS011;40937;53.594;10.034;2023-03-15T10:08:59;10.38;;;1.85;;
55037;SDS011;40937;53.594;10.034;2023-03-15T10:15:07;6.78;;;1.92;;
55037;SDS011;40937;53.594;10.034;2023-03-15T10:17:45;7.50;;;1.88;;
55037;SDS011;40937;53.594;10.034;2023-03-15T10:20:24;5.20;;;1.63;;
55037;SDS011;40937;53.594;10.034;2023-03-15T10:22:53;6.63;;;1.75;;
55037;SDS011;40937;53.594;10.034;2023-03-15T10:25:25;9.55;;;2.30;;
55037;SDS011;40937;53.594;10.034;2023-03-15T10:27:54;5.75;;;1.83;;
55037;SDS011;40937;53.594;10.034;2023-03-15T11:05:02;9.25;;;1.75;;
55037;SDS011;40937;53.594;10.034;2023-03-15T11:07:51;7.50;;;1.70;;
55037;SDS011;40937;53.594;10.034;2023-03-15T11:10:20;3.38;;;1.13;;
55037;SDS011;40937;53.594;10.034;2023-03-15T11:12:50;1.92;;;0.98;;
55037;SDS011;40937;53.594;10.034;2023-03-15T11:15:36;3.05;;;1.10;;
55037;SDS011;40937;53.594;10.034;2023-03-15T11:18:04;4.00;;;1.08;;
55037;SDS011;40937;53.594;10.034;2023-03-15T11:20:35;2.17;;;1.00;;
55037;SDS011;40937;53.594;10.034;2023-03-15T11:23:12;2.58;;;0.90;;
55037;SDS011;40937;53.594;10.034;2023-03-15T11:25:41;6.07;;;1.67;;
55037;SDS011;40937;53.594;10.034;2023-03-15T11:28:10;4.88;;;0.90;;
55037;SDS011;40937;53.594;10.034;2023-03-15T11:30:43;5.15;;;1.00;;
55037;SDS011;40937;53.594;10.034;2023-03-15T11:33:14;4.95;;;1.27;;
55037;SDS011;40937;53.594;10.034;2023-03-15T11:35:53;3.13;;;0.90;;
55037;SDS011;40937;53.594;10.034;2023-03-15T11:38:24;3.97;;;1.23;;
55037;SDS011;40937;53.594;10.034;2023-03-15T11:40:59;5.95;;;1.45;;
55037;SDS011;40937;53.594;10.034;2023-03-15T11:46:07;5.57;;;1.58;;
55037;SDS011;40937;53.594;10.034;2023-03-15T11:48:59;1.80;;;0.90;;
55037;SDS011;40937;53.594;10.034;2023-03-15T11:51:34;2.85;;;1.40;;
55037;SDS011;40937;53.594;10.034;2023-03-15T11:54:11;3.78;;;1.77;;
55037;SDS011;40937;53.594;10.034;2023-03-15T11:56:46;4.00;;;1.88;;
55037;SDS011;40937;53.594;10.034;2023-03-15T11:59:17;4.05;;;1.50;;
55037;SDS011;40937;53.594;10.034;2023-03-15T12:01:49;5.57;;;1.02;;
55037;SDS011;40937;53.594;10.034;2023-03-15T12:04:29;4.47;;;1.52;;
55037;SDS011;40937;53.594;10.034;2023-03-15T12:07:22;5.97;;;1.65;;
55037;SDS011;40937;53.594;10.034;2023-03-15T12:09:54;15.52;;;1.95;;
55037;SDS011;40937;53.594;10.034;2023-03-15T12:12:38;8.38;;;1.70;;
55037;SDS011;40937;53.594;10.034;2023-03-15T12:18:21;6.78;;;1.85;;
55037;SDS011;40937;53.594;10.034;2023-03-15T12:21:04;5.70;;;1.55;;
55037;SDS011;40937;53.594;10.034;2023-03-15T12:23:38;3.00;;;1.48;;
55037;SDS011;40937;53.594;10.034;2023-03-15T12:26:21;7.30;;;1.45;;
55037;SDS011;40937;53.594;10.034;2023-03-15T12:28:53;5.32;;;1.35;;
55037;SDS011;40937;53.594;10.034;2023-03-15T12:34:23;4.25;;;1.48;;
55037;SDS011;40937;53.594;10.034;2023-03-15T12:37:07;4.97;;;1.40;;
55037;SDS011;40937;53.594;10.034;2023-03-15T12:39:46;5.13;;;1.48;;
55037;SDS011;40937;53.594;10.034;2023-03-15T12:45:33;5.72;;;1.58;;
55037;SDS011;40937;53.594;10.034;2023-03-15T12:48:21;5.32;;;1.52;;
55037;SDS011;40937;53.594;10.034;2023-03-15T12:50:50;7.38;;;2.13;;
55037;SDS011;40937;53.594;10.034;2023-03-15T12:53:38;4.97;;;1.60;;
55037;SDS011;40937;53.594;10.034;2023-03-15T12:56:18;5.25;;;1.50;;
55037;SDS011;40937;53.594;10.034;2023-03-15T12:59:04;6.70;;;2.00;;
55037;SDS011;40937;53.594;10.034;2023-03-15T13:01:39;4.80;;;1.73;;
55037;SDS011;40937;53.594;10.034;2023-03-15T13:04:08;7.85;;;1.67;;
55037;SDS011;40937;53.594;10.034;2023-03-15T13:06:41;4.57;;;1.35;;
55037;SDS011;40937;53.594;10.034;2023-03-15T13:09:19;9.98;;;1.85;;
55037;SDS011;40937;53.594;10.034;2023-03-15T13:12:11;5.63;;;1.50;;
55037;SDS011;40937;53.594;10.034;2023-03-15T13:14:50;5.45;;;1.48;;
55037;SDS011;40937;53.594;10.034;2023-03-15T13:17:27;6.43;;;1.73;;
55037;SDS011;40937;53.594;10.034;2023-03-15T13:20:24;11.82;;;2.22;;
55037;SDS011;40937;53.594;10.034;2023-03-15T13:23:12;5.22;;;1.70;;
55037;SDS011;40937;53.594;10.034;2023-03-15T13:25:50;8.57;;;1.63;;
55037;SDS011;40937;53.594;10.034;2023-03-15T13:28:35;9.98;;;1.85;;
55037;SDS011;40937;53.594;10.034;2023-03-15T13:31:11;4.35;;;2.00;;
55037;SDS011;40937;53.594;10.034;2023-03-15T13:33:45;9.25;;;2.47;;
55037;SDS011;40937;53.594;10.034;2023-03-15T13:36:18;9.40;;;2.28;;
55037;SDS011;40937;53.594;10.034;2023-03-15T13:38:51;8.40;;;2.17;;
55037;SDS011;40937;53.594;10.034;2023-03-15T13:41:25;10.80;;;2.53;;
55037;SDS011;40937;53.594;10.034;2023-03-15T13:43:59;9.98;;;2.53;;
55037;SDS011;40937;53.594;10.034;2023-03-15T13:46:31;8.88;;;2.50;;
55037;SDS011;40937;53.594;10.034;2023-03-15T13:49:02;12.23;;;2.35;;
55037;SDS011;40937;53.594;10.034;2023-03-15T13:51:35;10.77;;;2.35;;
55037;SDS011;40937;53.594;10.034;2023-03-15T13:54:06;10.20;;;2.90;;
55037;SDS011;40937;53.594;10.034;2023-03-15T13:56:42;8.68;;;2.25;;
55037;SDS011;40937;53.594;10.034;2023-03-15T13:59:28;10.63;;;2.72;;
55037;SDS011;40937;53.594;10.034;2023-03-15T14:02:02;11.77;;;2.25;;
55037;SDS011;40937;53.594;10.034;2023-03-15T14:04:34;15.55;;;2.38;;
55037;SDS011;40937;53.594;10.034;2023-03-15T14:07:08;11.35;;;2.97;;
55037;SDS011;40937;53.594;10.034;2023-03-15T14:10:05;5.75;;;1.75;;
55037;SDS011;40937;53.594;10.034;2023-03-15T14:12:35;11.00;;;2.40;;
55037;SDS011;40937;53.594;10.034;2023-03-15T14:15:12;9.43;;;2.55;;
55037;SDS011;40937;53.594;10.034;2023-03-15T14:17:53;9.30;;;1.90;;
55037;SDS011;40937;53.594;10.034;2023-03-15T14:43:27;14.07;;;2.72;;
55037;SDS011;40937;53.594;10.034;2023-03-15T14:46:55;12.82;;;3.55;;
55037;SDS011;40937;53.594;10.034;2023-03-15T14:51:02;8.00;;;1.88;;
55037;SDS011;40937;53.594;10.034;2023-03-15T14:54:25;9.50;;;2.50;;
55037;SDS011;40937;53.594;10.034;2023-03-15T14:58:11;13.15;;;2.72;;
55037;SDS011;40937;53.594;10.034;2023-03-15T15:02:04;7.15;;;1.92;;
55037;SDS011;40937;53.594;10.034;2023-03-15T15:08:58;24.85;;;2.92;;
55037;SDS011;40937;53.594;10.034;2023-03-15T15:12:28;9.73;;;2.28;;
55037;SDS011;40937;53.594;10.034;2023-03-15T15:59:07;6.80;;;2.17;;
55037;SDS011;40937;53.594;10.034;2023-03-15T16:01:38;12.73;;;2.97;;
55037;SDS011;40937;53.594;10.034;2023-03-15T16:04:06;8.02;;;2.67;;
55037;SDS011;40937;53.594;10.034;2023-03-15T16:06:33;11.00;;;3.03;;
55037;SDS011;40937;53.594;10.034;2023-03-15T16:09:02;11.30;;;2.78;;
55037;SDS011;40937;53.594;10.034;2023-03-15T16:11:31;11.05;;;2.30;;
55037;SDS011;40937;53.594;10.034;2023-03-15T16:13:59;9.70;;;2.72;;
55037;SDS011;40937;53.594;10.034;2023-03-15T16:16:28;8.93;;;2.45;;
55037;SDS011;40937;53.594;10.034;2023-03-15T16:18:55;11.05;;;2.40;;
55037;SDS011;40937;53.594;10.034;2023-03-15T16:21:26;12.15;;;2.38;;
55037;SDS011;40937;53.594;10.034;2023-03-15T16:24:02;13.90;;;2.45;;
55037;SDS011;40937;53.594;10.034;2023-03-15T16:26:37;10.27;;;2.35;;
55037;SDS011;40937;53.594;10.034;2023-03-15T16:29:13;10.75;;;2.45;;
55037;SDS011;40937;53.594;10.034;2023-03-15T16:31:45;7.40;;;2.03;;
55037;SDS011;40937;53.594;10.034;2023-03-15T16:34:14;17.48;;;2.40;;
55037;SDS011;40937;53.594;10.034;2023-03-15T16:36:44;11.70;;;2.00;;
55037;SDS011;40937;53.594;10.034;2023-03-15T16:39:13;7.80;;;2.17;;
55037;SDS011;40937;53.594;10.034;2023-03-15T16:41:41;17.00;;;3.10;;
55037;SDS011;40937;53.594;10.034;2023-03-15T16:44:09;12.57;;;2.70;;
55037;SDS011;40937;53.594;10.034;2023-03-15T16:46:38;9.68;;;2.40;;
55037;SDS011;40937;53.594;10.034;2023-03-15T16:49:07;8.63;;;2.40;;
55037;SDS011;40937;53.594;10.034;2023-03-15T16:51:34;6.60;;;2.70;;
55037;SDS011;40937;53.594;10.034;2023-03-15T16:54:04;8.63;;;2.15;;
55037;SDS011;40937;53.594;10.034;2023-03-15T16:56:32;17.08;;;3.15;;
55037;SDS011;40937;53.594;10.034;2023-03-15T16:59:02;9.75;;;2.40;;
55037;SDS011;40937;53.594;10.034;2023-03-15T17:01:30;12.40;;;3.13;;
55037;SDS011;40937;53.594;10.034;2023-03-15T17:03:59;17.15;;;2.15;;
55037;SDS011;40937;53.594;10.034;2023-03-15T17:06:28;13.93;;;3.40;;
55037;SDS011;40937;53.594;10.034;2023-03-15T17:08:58;11.52;;;2.45;;
55037;SDS011;40937;53.594;10.034;2023-03-15T17:11:27;13.57;;;2.03;;
55037;SDS011;40937;53.594;10.034;2023-03-15T17:13:55;14.52;;;2.67;;
55037;SDS011;40937;53.594;10.034;2023-03-15T17:16:24;8.45;;;2.40;;
55037;SDS011;40937;53.594;10.034;2023-03-15T17:18:51;11.05;;;3.05;;
55037;SDS011;40937;53.594;10.034;2023-03-15T17:21:19;17.67;;;2.42;;
55037;SDS011;40937;53.594;10.034;2023-03-15T17:23:51;13.15;;;2.60;;
55037;SDS011;40937;53.594;10.034;2023-03-15T17:26:20;15.93;;;3.42;;
55037;SDS011;40937;53.594;10.034;2023-03-15T17:28:49;9.90;;;2.42;;
55037;SDS011;40937;53.594;10.034;2023-03-15T17:31:17;11.73;;;3.17;;
55037;SDS011;40937;53.594;10.034;2023-03-15T17:33:45;19.20;;;2.75;;
55037;SDS011;40937;53.594;10.034;2023-03-15T17:36:14;7.88;;;2.33;;
55037;SDS011;40937;53.594;10.034;2023-03-15T17:38:44;11.77;;;2.72;;
55037;SDS011;40937;53.594;10.034;2023-03-15T17:41:16;10.52;;;2.58;;
55037;SDS011;40937;53.594;10.034;2023-03-15T17:43:47;9.85;;;2.38;;